Smyrna, TN (MQY)

CessnaPCRedbird FMX


Wings of Eagles Aviation started in Smyrna (MQY) in 1998 as a small flight school. The Smyrna Airport is the third largest airport in the state of Tennessee and the busiest general aviation airport. With its longest runway being just over 8,000 feet and having its own air traffic control tower, this is the best possible training environment for all pilots. Once you learn how to fly here, you will be confident no matter where your aviation adventures take you.

Address:
278 Doug Warpoole Rd. Suite 104
Smyrna, TN 37167

Phone: (615) 355-0033

Business Hours:
Monday-Sunday 7a-10p

Wings MQY

NOAA Weather

Smyrna, TN

Last Updated on Feb 23 2017, 11:56 am CST

Current Conditions: Mostly Cloudy

NOAA Icon

Temp: 71°F

Wind: South at 9mph

Humidity: 63%

Dewpoint: 57.9°F

Your 5-Day Forecast at a Glance

Available data for KMQY from the past 2 hours
SMYRNA, TN
Metar
KMQY 231756Z 20008KT 10SM SCT029 BKN050 22/14 A2983 RMK AO2 SLP012 T02170144 10222 20078 58018

17:56 UTC

Wind: 200° 8kt

Visibility: 10 SM

Sky: SCT 2900 ft

Temp: 22 deg C / 71.6 deg F

Dewpoint: 14 deg C / 57.2 deg F

Pressure: 29.83 inHg

Pireps (2)
HSV UA /OV HSV135005/TM 1716/FLDURGC/TP B712/SK BKN034-TOP043/RM RAGGED LAYER
BNA UA /OV BNA060020/TM 1653/FLDURD/TP C680 /SK SCT027-TOP030, BKN059-TOP066